Startpagina
METAR-TAF:

METAR-TAF

Vliegvelden :

Aéroport International de Limoges

Limoges, Frankrijk

breedte: 45-52N, lengte: 001-11E, hoogte: 396 m

Actueel weer

Dit bericht is 41 minuten geleden gemaakt, om 20:30 UTC
Wind 5 kt uit het zuidwesten
Temperatuur 9°C
Vochtigheid 87%
Druk 1031 hPa
Zicht 10 km of meer
Geheel bewolkt op 1400 ft

METAR: LFBL 232030Z AUTO 23005KT 9999 OVC014 09/07 Q1031 NOSIG

Tijdstip: 22:11 (21:11 UTC)

Verwachting

Dit bericht is 1 uur en het 27 minuten geleden gemaakt, om 19:44 UTC
Verwachting geldig van 23 om 19 UTC tot 24 om 18 UTC
Wind 7 kt uit het zuidzuidwesten
Zicht 10 km of meer
Gebroken wolken op 2000 ft
Tijdelijke
van 23 om 19 UTC tot 24 om 09 UTC
Gebroken wolken op 1000 ft
Kans 30% :
Tijdelijke
van 24 om 00 UTC tot 24 om 08 UTC
Zicht: 3000 m
Gebroken wolken op 400 ft
nevel
Tijdelijke
van 24 om 13 UTC tot 24 om 16 UTC
Verspreide wolken op 2500 ft

TAF: LFBL 231944Z 2319/2418 21007KT 9999 BKN020 TEMPO 2319/2409 BKN010 PROB30 TEMPO 2400/2408 3000 BR BKN004 TEMPO 2413/2416 SCT025

Waarnemingen en weersverwachtingen van meer dan 4000 vliegvelden (METAR en TAF).

De beschikbare stations zijn de gele en rode punten op de kaart.

Ga met uw muis naar het station om de naam te zien.

Klik dan om waarnemingen en weersverwachtingen te zien.

kaart wijzigen: klik op de groene knoppen met een zwart kruis om in te zoomen, op de groene knop met een streepje om uit te zoomen of op de groene pijlen voor aangrenzende kaarten.


METAR-TAF: